11V weather

Easton/Valley View Airport
Greeley, Colorado, United States

Public forecast

Using degrees Fahrenheit for public forecast. Weather courtesy of forecast.io.

Closest aviation weather report (METAR) to Easton/Valley View Airport

Closest report is Greeley–Weld County Airport, 6.5 nm (12.1 km) N. Retrieved 2020/02/21 23:56 UTC (14 minutes ago):

KGXY 212356Z AUTO 14005KT 10SM CLR 10/M10 A3014 RMK AO2 SLP244 T01001100 10133 20011 57012

Closest aviation forecast (TAF) to Easton/Valley View Airport

Closest forecast is Denver International Airport, 28.3 nm (52.4 km) S. Retrieved 2020-02-22 00:30 UTC (0 seconds ago):

TAF KDEN 212328Z 2200/2306 15010KT P6SM FEW140 FEW220 FM220100 18007KT P6SM FEW140 FEW220 FM220600 21010KT P6SM FEW220 FM221600 15008KT P6SM FEW100 SCT200 FM230200 18007KT P6SM SCT070 BKN100